sensor_id;sensor_type;location;lat;lon;timestamp;P1;durP1;ratioP1;P2;durP2;ratioP2
5521;SDS011;2783;48.730;8.006;2023-08-01T00:02:04;7.38;;;2.50;;
5521;SDS011;2783;48.730;8.006;2023-08-01T00:04:29;6.82;;;2.30;;
5521;SDS011;2783;48.730;8.006;2023-08-01T00:06:55;5.57;;;2.20;;
5521;SDS011;2783;48.730;8.006;2023-08-01T00:09:20;5.05;;;2.70;;
5521;SDS011;2783;48.730;8.006;2023-08-01T00:11:45;8.40;;;2.20;;
5521;SDS011;2783;48.730;8.006;2023-08-01T00:14:11;5.55;;;2.08;;
5521;SDS011;2783;48.730;8.006;2023-08-01T00:16:36;6.07;;;3.03;;
5521;SDS011;2783;48.730;8.006;2023-08-01T00:19:02;6.90;;;2.40;;
5521;SDS011;2783;48.730;8.006;2023-08-01T00:21:27;5.53;;;2.50;;
5521;SDS011;2783;48.730;8.006;2023-08-01T00:23:53;6.53;;;3.28;;
5521;SDS011;2783;48.730;8.006;2023-08-01T00:26:18;4.70;;;2.10;;
5521;SDS011;2783;48.730;8.006;2023-08-01T00:28:44;5.00;;;2.33;;
5521;SDS011;2783;48.730;8.006;2023-08-01T00:31:09;7.20;;;3.50;;
5521;SDS011;2783;48.730;8.006;2023-08-01T00:33:35;4.05;;;2.22;;
5521;SDS011;2783;48.730;8.006;2023-08-01T00:36:00;4.78;;;2.35;;
5521;SDS011;2783;48.730;8.006;2023-08-01T00:38:26;6.80;;;2.78;;
5521;SDS011;2783;48.730;8.006;2023-08-01T00:40:52;5.95;;;2.30;;
5521;SDS011;2783;48.730;8.006;2023-08-01T00:43:17;7.28;;;2.67;;
5521;SDS011;2783;48.730;8.006;2023-08-01T00:45:43;5.15;;;2.42;;
5521;SDS011;2783;48.730;8.006;2023-08-01T00:48:10;5.30;;;2.10;;
5521;SDS011;2783;48.730;8.006;2023-08-01T00:50:35;5.75;;;2.58;;
5521;SDS011;2783;48.730;8.006;2023-08-01T00:53:01;5.88;;;2.85;;
5521;SDS011;2783;48.730;8.006;2023-08-01T00:55:27;5.65;;;2.95;;
5521;SDS011;2783;48.730;8.006;2023-08-01T00:57:55;5.32;;;2.45;;
5521;SDS011;2783;48.730;8.006;2023-08-01T01:00:36;7.20;;;2.47;;
5521;SDS011;2783;48.730;8.006;2023-08-01T01:03:01;6.30;;;2.90;;
5521;SDS011;2783;48.730;8.006;2023-08-01T01:05:27;5.85;;;2.72;;
5521;SDS011;2783;48.730;8.006;2023-08-01T01:08:00;5.82;;;2.85;;
5521;SDS011;2783;48.730;8.006;2023-08-01T01:10:27;6.72;;;2.88;;
5521;SDS011;2783;48.730;8.006;2023-08-01T01:12:52;7.20;;;2.75;;
5521;SDS011;2783;48.730;8.006;2023-08-01T01:15:18;7.30;;;2.95;;
5521;SDS011;2783;48.730;8.006;2023-08-01T01:17:43;4.63;;;2.47;;
5521;SDS011;2783;48.730;8.006;2023-08-01T01:20:09;7.13;;;3.33;;
5521;SDS011;2783;48.730;8.006;2023-08-01T01:22:35;6.32;;;2.95;;
5521;SDS011;2783;48.730;8.006;2023-08-01T01:25:02;7.07;;;3.13;;
5521;SDS011;2783;48.730;8.006;2023-08-01T01:27:28;5.90;;;2.97;;
5521;SDS011;2783;48.730;8.006;2023-08-01T01:29:54;6.60;;;2.88;;
5521;SDS011;2783;48.730;8.006;2023-08-01T01:32:20;10.90;;;3.40;;
5521;SDS011;2783;48.730;8.006;2023-08-01T01:34:46;6.70;;;2.78;;
5521;SDS011;2783;48.730;8.006;2023-08-01T01:37:12;6.28;;;2.83;;
5521;SDS011;2783;48.730;8.006;2023-08-01T01:39:37;6.07;;;2.50;;
5521;SDS011;2783;48.730;8.006;2023-08-01T01:42:03;6.40;;;2.85;;
5521;SDS011;2783;48.730;8.006;2023-08-01T01:44:28;6.05;;;2.80;;
5521;SDS011;2783;48.730;8.006;2023-08-01T01:46:54;6.18;;;2.45;;
5521;SDS011;2783;48.730;8.006;2023-08-01T01:49:19;6.60;;;2.55;;
5521;SDS011;2783;48.730;8.006;2023-08-01T01:51:45;6.53;;;2.65;;
5521;SDS011;2783;48.730;8.006;2023-08-01T01:54:10;8.18;;;3.00;;
5521;SDS011;2783;48.730;8.006;2023-08-01T01:56:35;7.82;;;3.13;;
5521;SDS011;2783;48.730;8.006;2023-08-01T01:59:01;6.28;;;3.10;;
5521;SDS011;2783;48.730;8.006;2023-08-01T02:01:27;6.90;;;3.13;;
5521;SDS011;2783;48.730;8.006;2023-08-01T02:03:52;6.05;;;2.83;;
5521;SDS011;2783;48.730;8.006;2023-08-01T02:06:17;7.22;;;3.35;;
5521;SDS011;2783;48.730;8.006;2023-08-01T02:08:43;9.18;;;3.15;;
5521;SDS011;2783;48.730;8.006;2023-08-01T02:11:08;7.20;;;3.42;;
5521;SDS011;2783;48.730;8.006;2023-08-01T02:13:34;6.72;;;2.65;;
5521;SDS011;2783;48.730;8.006;2023-08-01T02:15:59;6.20;;;2.88;;
5521;SDS011;2783;48.730;8.006;2023-08-01T02:18:24;11.02;;;3.30;;
5521;SDS011;2783;48.730;8.006;2023-08-01T02:20:50;6.53;;;2.75;;
5521;SDS011;2783;48.730;8.006;2023-08-01T02:23:15;6.32;;;2.55;;
5521;SDS011;2783;48.730;8.006;2023-08-01T02:25:41;8.00;;;3.88;;
5521;SDS011;2783;48.730;8.006;2023-08-01T02:28:07;7.22;;;3.15;;
5521;SDS011;2783;48.730;8.006;2023-08-01T02:30:36;7.07;;;2.63;;
5521;SDS011;2783;48.730;8.006;2023-08-01T02:33:02;7.30;;;2.75;;
5521;SDS011;2783;48.730;8.006;2023-08-01T02:35:28;6.88;;;2.58;;
5521;SDS011;2783;48.730;8.006;2023-08-01T02:37:54;7.13;;;2.92;;
5521;SDS011;2783;48.730;8.006;2023-08-01T02:40:20;6.97;;;2.92;;
5521;SDS011;2783;48.730;8.006;2023-08-01T02:42:45;7.78;;;2.83;;
5521;SDS011;2783;48.730;8.006;2023-08-01T02:45:11;10.45;;;3.15;;
5521;SDS011;2783;48.730;8.006;2023-08-01T02:47:36;5.40;;;2.50;;
5521;SDS011;2783;48.730;8.006;2023-08-01T02:50:02;5.57;;;2.38;;
5521;SDS011;2783;48.730;8.006;2023-08-01T02:52:27;5.80;;;2.28;;
5521;SDS011;2783;48.730;8.006;2023-08-01T02:54:53;5.70;;;2.40;;
5521;SDS011;2783;48.730;8.006;2023-08-01T02:57:18;6.32;;;2.50;;
5521;SDS011;2783;48.730;8.006;2023-08-01T02:59:44;8.30;;;2.22;;
5521;SDS011;2783;48.730;8.006;2023-08-01T03:02:09;5.65;;;2.53;;
5521;SDS011;2783;48.730;8.006;2023-08-01T03:04:34;7.95;;;2.22;;
5521;SDS011;2783;48.730;8.006;2023-08-01T03:07:00;7.32;;;2.97;;
5521;SDS011;2783;48.730;8.006;2023-08-01T03:09:26;6.53;;;2.90;;
5521;SDS011;2783;48.730;8.006;2023-08-01T03:11:51;5.45;;;2.22;;
5521;SDS011;2783;48.730;8.006;2023-08-01T03:14:17;5.22;;;2.83;;
5521;SDS011;2783;48.730;8.006;2023-08-01T03:16:42;5.85;;;2.47;;
5521;SDS011;2783;48.730;8.006;2023-08-01T03:19:08;5.80;;;3.42;;
5521;SDS011;2783;48.730;8.006;2023-08-01T03:21:33;5.00;;;2.30;;
5521;SDS011;2783;48.730;8.006;2023-08-01T03:24:00;4.65;;;2.50;;
5521;SDS011;2783;48.730;8.006;2023-08-01T03:26:26;5.25;;;2.00;;
5521;SDS011;2783;48.730;8.006;2023-08-01T03:28:53;11.02;;;3.08;;
5521;SDS011;2783;48.730;8.006;2023-08-01T03:31:20;5.63;;;2.40;;
5521;SDS011;2783;48.730;8.006;2023-08-01T03:33:46;6.35;;;2.45;;
5521;SDS011;2783;48.730;8.006;2023-08-01T03:36:11;10.90;;;2.35;;
5521;SDS011;2783;48.730;8.006;2023-08-01T03:38:37;4.32;;;1.80;;
5521;SDS011;2783;48.730;8.006;2023-08-01T03:41:03;6.47;;;2.70;;
5521;SDS011;2783;48.730;8.006;2023-08-01T03:43:29;7.03;;;2.40;;
5521;SDS011;2783;48.730;8.006;2023-08-01T03:45:54;7.25;;;2.17;;
5521;SDS011;2783;48.730;8.006;2023-08-01T03:48:20;5.72;;;2.95;;
5521;SDS011;2783;48.730;8.006;2023-08-01T03:50:45;3.80;;;1.67;;
5521;SDS011;2783;48.730;8.006;2023-08-01T03:53:11;4.78;;;2.00;;
5521;SDS011;2783;48.730;8.006;2023-08-01T03:55:36;4.82;;;1.73;;
5521;SDS011;2783;48.730;8.006;2023-08-01T03:58:02;4.47;;;1.88;;
5521;SDS011;2783;48.730;8.006;2023-08-01T04:00:27;6.82;;;2.05;;
5521;SDS011;2783;48.730;8.006;2023-08-01T04:02:57;4.18;;;1.85;;
5521;SDS011;2783;48.730;8.006;2023-08-01T04:05:26;6.53;;;2.40;;
5521;SDS011;2783;48.730;8.006;2023-08-01T04:07:52;6.25;;;2.65;;
5521;SDS011;2783;48.730;8.006;2023-08-01T04:10:19;6.30;;;2.40;;
5521;SDS011;2783;48.730;8.006;2023-08-01T04:12:46;6.93;;;2.40;;
5521;SDS011;2783;48.730;8.006;2023-08-01T04:15:11;6.10;;;2.33;;
5521;SDS011;2783;48.730;8.006;2023-08-01T04:17:37;7.53;;;2.67;;
5521;SDS011;2783;48.730;8.006;2023-08-01T04:20:02;7.65;;;2.80;;
5521;SDS011;2783;48.730;8.006;2023-08-01T04:22:28;8.02;;;2.38;;
5521;SDS011;2783;48.730;8.006;2023-08-01T04:24:53;8.77;;;2.95;;
5521;SDS011;2783;48.730;8.006;2023-08-01T04:27:19;6.25;;;2.35;;
5521;SDS011;2783;48.730;8.006;2023-08-01T04:29:44;4.88;;;2.40;;
5521;SDS011;2783;48.730;8.006;2023-08-01T04:32:10;6.90;;;2.80;;
5521;SDS011;2783;48.730;8.006;2023-08-01T04:34:37;7.40;;;2.88;;
5521;SDS011;2783;48.730;8.006;2023-08-01T04:37:03;8.57;;;2.90;;
5521;SDS011;2783;48.730;8.006;2023-08-01T04:39:29;6.97;;;2.70;;
5521;SDS011;2783;48.730;8.006;2023-08-01T04:41:54;6.10;;;2.63;;
5521;SDS011;2783;48.730;8.006;2023-08-01T04:44:19;7.93;;;2.40;;
5521;SDS011;2783;48.730;8.006;2023-08-01T04:46:45;8.98;;;2.72;;
5521;SDS011;2783;48.730;8.006;2023-08-01T04:49:12;6.35;;;2.72;;
5521;SDS011;2783;48.730;8.006;2023-08-01T04:51:38;11.00;;;3.13;;
5521;SDS011;2783;48.730;8.006;2023-08-01T04:54:03;8.18;;;3.15;;
5521;SDS011;2783;48.730;8.006;2023-08-01T04:56:28;6.13;;;2.83;;
5521;SDS011;2783;48.730;8.006;2023-08-01T04:58:54;9.88;;;2.95;;
5521;SDS011;2783;48.730;8.006;2023-08-01T05:01:19;6.13;;;2.95;;
5521;SDS011;2783;48.730;8.006;2023-08-01T05:03:45;10.32;;;3.30;;
5521;SDS011;2783;48.730;8.006;2023-08-01T05:06:10;6.97;;;3.30;;
5521;SDS011;2783;48.730;8.006;2023-08-01T05:08:35;9.25;;;2.88;;
5521;SDS011;2783;48.730;8.006;2023-08-01T05:11:01;7.40;;;3.30;;
5521;SDS011;2783;48.730;8.006;2023-08-01T05:13:26;8.60;;;3.00;;
5521;SDS011;2783;48.730;8.006;2023-08-01T05:15:52;9.93;;;3.20;;
5521;SDS011;2783;48.730;8.006;2023-08-01T05:18:17;6.95;;;2.92;;
5521;SDS011;2783;48.730;8.006;2023-08-01T05:20:42;7.75;;;2.38;;
5521;SDS011;2783;48.730;8.006;2023-08-01T05:23:08;10.27;;;3.05;;
5521;SDS011;2783;48.730;8.006;2023-08-01T05:25:34;9.98;;;3.08;;
5521;SDS011;2783;48.730;8.006;2023-08-01T05:27:59;6.72;;;2.83;;
5521;SDS011;2783;48.730;8.006;2023-08-01T05:30:25;7.53;;;3.28;;
5521;SDS011;2783;48.730;8.006;2023-08-01T05:32:50;7.07;;;3.30;;
5521;SDS011;2783;48.730;8.006;2023-08-01T05:35:16;6.28;;;2.78;;
5521;SDS011;2783;48.730;8.006;2023-08-01T05:37:42;7.22;;;2.30;;
5521;SDS011;2783;48.730;8.006;2023-08-01T05:40:08;9.88;;;3.40;;
5521;SDS011;2783;48.730;8.006;2023-08-01T05:42:34;7.05;;;2.85;;
5521;SDS011;2783;48.730;8.006;2023-08-01T05:44:59;6.13;;;2.33;;
5521;SDS011;2783;48.730;8.006;2023-08-01T05:47:25;8.57;;;3.20;;
5521;SDS011;2783;48.730;8.006;2023-08-01T05:49:50;7.07;;;2.58;;
5521;SDS011;2783;48.730;8.006;2023-08-01T05:52:15;8.98;;;3.13;;
5521;SDS011;2783;48.730;8.006;2023-08-01T05:54:41;6.07;;;2.65;;
5521;SDS011;2783;48.730;8.006;2023-08-01T05:57:07;7.80;;;3.38;;
5521;SDS011;2783;48.730;8.006;2023-08-01T05:59:32;9.80;;;3.25;;
5521;SDS011;2783;48.730;8.006;2023-08-01T06:01:58;5.70;;;2.90;;
5521;SDS011;2783;48.730;8.006;2023-08-01T06:04:24;7.57;;;3.08;;
5521;SDS011;2783;48.730;8.006;2023-08-01T06:06:49;9.70;;;3.67;;
5521;SDS011;2783;48.730;8.006;2023-08-01T06:09:15;4.90;;;2.75;;
5521;SDS011;2783;48.730;8.006;2023-08-01T06:11:40;6.93;;;2.72;;
5521;SDS011;2783;48.730;8.006;2023-08-01T06:14:06;8.18;;;2.65;;
5521;SDS011;2783;48.730;8.006;2023-08-01T06:16:31;7.28;;;2.58;;
5521;SDS011;2783;48.730;8.006;2023-08-01T06:18:57;6.47;;;2.53;;
5521;SDS011;2783;48.730;8.006;2023-08-01T06:21:23;9.90;;;3.28;;
5521;SDS011;2783;48.730;8.006;2023-08-01T06:23:48;9.45;;;3.42;;
5521;SDS011;2783;48.730;8.006;2023-08-01T06:26:14;6.45;;;3.10;;
5521;SDS011;2783;48.730;8.006;2023-08-01T06:28:40;7.78;;;3.05;;
5521;SDS011;2783;48.730;8.006;2023-08-01T06:31:06;8.45;;;2.55;;
5521;SDS011;2783;48.730;8.006;2023-08-01T06:33:31;7.38;;;2.88;;
5521;SDS011;2783;48.730;8.006;2023-08-01T06:35:57;7.95;;;3.08;;
5521;SDS011;2783;48.730;8.006;2023-08-01T06:38:22;5.82;;;2.35;;
5521;SDS011;2783;48.730;8.006;2023-08-01T06:40:48;9.13;;;3.00;;
5521;SDS011;2783;48.730;8.006;2023-08-01T06:43:13;7.63;;;3.40;;
5521;SDS011;2783;48.730;8.006;2023-08-01T06:45:38;8.52;;;3.22;;
5521;SDS011;2783;48.730;8.006;2023-08-01T06:48:04;7.10;;;3.10;;
5521;SDS011;2783;48.730;8.006;2023-08-01T06:50:29;7.00;;;3.00;;
5521;SDS011;2783;48.730;8.006;2023-08-01T06:52:55;6.90;;;2.85;;
5521;SDS011;2783;48.730;8.006;2023-08-01T06:55:20;8.30;;;3.08;;
5521;SDS011;2783;48.730;8.006;2023-08-01T06:57:45;7.05;;;2.70;;
5521;SDS011;2783;48.730;8.006;2023-08-01T07:00:11;7.13;;;3.00;;
5521;SDS011;2783;48.730;8.006;2023-08-01T07:02:37;6.70;;;2.17;;
5521;SDS011;2783;48.730;8.006;2023-08-01T07:05:02;7.13;;;2.65;;
5521;SDS011;2783;48.730;8.006;2023-08-01T07:07:28;4.95;;;2.47;;
5521;SDS011;2783;48.730;8.006;2023-08-01T07:09:53;10.40;;;2.75;;
5521;SDS011;2783;48.730;8.006;2023-08-01T07:12:18;9.70;;;3.33;;
5521;SDS011;2783;48.730;8.006;2023-08-01T07:14:44;4.43;;;2.35;;
5521;SDS011;2783;48.730;8.006;2023-08-01T07:17:09;6.15;;;2.35;;
5521;SDS011;2783;48.730;8.006;2023-08-01T07:19:35;6.90;;;2.60;;
5521;SDS011;2783;48.730;8.006;2023-08-01T07:22:00;6.57;;;2.90;;
5521;SDS011;2783;48.730;8.006;2023-08-01T07:24:25;6.30;;;2.35;;
5521;SDS011;2783;48.730;8.006;2023-08-01T07:26:51;8.32;;;3.00;;
5521;SDS011;2783;48.730;8.006;2023-08-01T07:29:16;5.90;;;2.38;;
5521;SDS011;2783;48.730;8.006;2023-08-01T07:31:42;5.53;;;2.63;;
5521;SDS011;2783;48.730;8.006;2023-08-01T07:34:07;4.20;;;1.98;;
5521;SDS011;2783;48.730;8.006;2023-08-01T07:36:33;6.85;;;2.70;;
5521;SDS011;2783;48.730;8.006;2023-08-01T07:38:58;6.28;;;2.35;;
5521;SDS011;2783;48.730;8.006;2023-08-01T07:41:24;6.32;;;2.55;;
5521;SDS011;2783;48.730;8.006;2023-08-01T07:43:49;5.40;;;2.22;;
5521;SDS011;2783;48.730;8.006;2023-08-01T07:46:15;9.43;;;2.42;;
5521;SDS011;2783;48.730;8.006;2023-08-01T07:48:40;5.88;;;2.03;;
5521;SDS011;2783;48.730;8.006;2023-08-01T07:51:06;4.93;;;2.20;;
5521;SDS011;2783;48.730;8.006;2023-08-01T07:53:33;6.53;;;2.05;;
5521;SDS011;2783;48.730;8.006;2023-08-01T07:55:59;4.78;;;2.00;;
5521;SDS011;2783;48.730;8.006;2023-08-01T07:58:27;5.60;;;2.40;;
5521;SDS011;2783;48.730;8.006;2023-08-01T08:00:52;9.63;;;2.38;;
5521;SDS011;2783;48.730;8.006;2023-08-01T08:03:18;4.85;;;2.35;;
5521;SDS011;2783;48.730;8.006;2023-08-01T08:05:44;7.03;;;3.10;;
5521;SDS011;2783;48.730;8.006;2023-08-01T08:08:09;5.00;;;2.00;;
5521;SDS011;2783;48.730;8.006;2023-08-01T08:10:35;5.38;;;2.33;;
5521;SDS011;2783;48.730;8.006;2023-08-01T08:13:00;4.90;;;2.17;;
5521;SDS011;2783;48.730;8.006;2023-08-01T08:15:26;3.88;;;2.22;;
5521;SDS011;2783;48.730;8.006;2023-08-01T08:17:52;5.00;;;2.15;;
5521;SDS011;2783;48.730;8.006;2023-08-01T08:20:17;5.13;;;2.17;;
5521;SDS011;2783;48.730;8.006;2023-08-01T08:22:43;5.43;;;2.10;;
5521;SDS011;2783;48.730;8.006;2023-08-01T08:25:08;7.60;;;2.33;;
5521;SDS011;2783;48.730;8.006;2023-08-01T08:27:33;6.20;;;2.50;;
5521;SDS011;2783;48.730;8.006;2023-08-01T08:42:05;6.03;;;1.80;;
5521;SDS011;2783;48.730;8.006;2023-08-01T08:44:31;6.88;;;2.70;;
5521;SDS011;2783;48.730;8.006;2023-08-01T08:47:07;5.80;;;2.40;;
5521;SDS011;2783;48.730;8.006;2023-08-01T08:49:35;5.03;;;1.80;;
5521;SDS011;2783;48.730;8.006;2023-08-01T08:52:02;5.22;;;1.67;;
5521;SDS011;2783;48.730;8.006;2023-08-01T08:54:28;4.68;;;1.63;;
5521;SDS011;2783;48.730;8.006;2023-08-01T08:56:55;3.60;;;1.92;;
5521;SDS011;2783;48.730;8.006;2023-08-01T08:59:21;2.88;;;1.50;;
5521;SDS011;2783;48.730;8.006;2023-08-01T09:01:46;2.95;;;1.38;;
5521;SDS011;2783;48.730;8.006;2023-08-01T09:04:12;1.80;;;0.98;;
5521;SDS011;2783;48.730;8.006;2023-08-01T09:06:40;1.42;;;0.80;;
5521;SDS011;2783;48.730;8.006;2023-08-01T09:09:13;2.28;;;0.70;;
5521;SDS011;2783;48.730;8.006;2023-08-01T09:14:10;2.30;;;0.68;;
5521;SDS011;2783;48.730;8.006;2023-08-01T09:16:35;0.75;;;0.60;;
5521;SDS011;2783;48.730;8.006;2023-08-01T09:19:01;1.13;;;0.68;;
5521;SDS011;2783;48.730;8.006;2023-08-01T09:21:27;1.00;;;0.65;;
5521;SDS011;2783;48.730;8.006;2023-08-01T09:24:07;1.23;;;0.60;;
5521;SDS011;2783;48.730;8.006;2023-08-01T09:26:33;1.10;;;0.57;;
5521;SDS011;2783;48.730;8.006;2023-08-01T09:28:58;4.78;;;0.75;;
5521;SDS011;2783;48.730;8.006;2023-08-01T09:31:28;1.38;;;0.60;;
5521;SDS011;2783;48.730;8.006;2023-08-01T09:33:54;2.03;;;0.75;;
5521;SDS011;2783;48.730;8.006;2023-08-01T09:36:23;1.13;;;0.50;;
5521;SDS011;2783;48.730;8.006;2023-08-01T09:38:49;0.95;;;0.70;;
5521;SDS011;2783;48.730;8.006;2023-08-01T09:41:18;2.00;;;0.63;;
5521;SDS011;2783;48.730;8.006;2023-08-01T09:43:45;2.85;;;0.93;;
5521;SDS011;2783;48.730;8.006;2023-08-01T09:46:12;1.40;;;0.70;;
5521;SDS011;2783;48.730;8.006;2023-08-01T09:48:38;1.35;;;0.60;;
5521;SDS011;2783;48.730;8.006;2023-08-01T09:53:31;1.60;;;0.80;;
5521;SDS011;2783;48.730;8.006;2023-08-01T09:55:58;2.25;;;0.80;;
5521;SDS011;2783;48.730;8.006;2023-08-01T09:58:25;1.70;;;0.70;;
5521;SDS011;2783;48.730;8.006;2023-08-01T10:00:56;3.28;;;0.52;;
5521;SDS011;2783;48.730;8.006;2023-08-01T10:03:22;2.97;;;0.60;;
5521;SDS011;2783;48.730;8.006;2023-08-01T10:05:49;1.85;;;0.50;;
5521;SDS011;2783;48.730;8.006;2023-08-01T10:08:18;4.00;;;0.73;;
5521;SDS011;2783;48.730;8.006;2023-08-01T10:10:44;1.77;;;0.75;;
5521;SDS011;2783;48.730;8.006;2023-08-01T10:13:12;3.35;;;0.80;;
5521;SDS011;2783;48.730;8.006;2023-08-01T10:15:38;2.00;;;0.90;;
5521;SDS011;2783;48.730;8.006;2023-08-01T10:18:04;1.10;;;0.60;;
5521;SDS011;2783;48.730;8.006;2023-08-01T10:20:30;4.00;;;0.90;;
5521;SDS011;2783;48.730;8.006;2023-08-01T10:22:57;4.75;;;0.60;;
5521;SDS011;2783;48.730;8.006;2023-08-01T10:25:24;1.88;;;0.68;;
5521;SDS011;2783;48.730;8.006;2023-08-01T10:28:01;2.97;;;0.75;;
5521;SDS011;2783;48.730;8.006;2023-08-01T10:30:30;4.43;;;0.80;;
5521;SDS011;2783;48.730;8.006;2023-08-01T10:32:57;1.13;;;0.63;;
5521;SDS011;2783;48.730;8.006;2023-08-01T10:35:36;2.17;;;0.82;;
5521;SDS011;2783;48.730;8.006;2023-08-01T10:43:05;2.50;;;1.10;;
5521;SDS011;2783;48.730;8.006;2023-08-01T10:45:31;2.20;;;0.80;;
5521;SDS011;2783;48.730;8.006;2023-08-01T10:48:09;2.25;;;0.75;;
5521;SDS011;2783;48.730;8.006;2023-08-01T10:50:35;3.25;;;0.82;;
5521;SDS011;2783;48.730;8.006;2023-08-01T10:53:04;4.10;;;0.90;;
5521;SDS011;2783;48.730;8.006;2023-08-01T10:55:44;2.08;;;0.75;;
5521;SDS011;2783;48.730;8.006;2023-08-01T10:58:11;1.33;;;0.77;;
5521;SDS011;2783;48.730;8.006;2023-08-01T11:00:37;5.78;;;0.90;;
5521;SDS011;2783;48.730;8.006;2023-08-01T11:03:03;2.13;;;0.90;;
5521;SDS011;2783;48.730;8.006;2023-08-01T11:05:29;1.40;;;0.65;;
5521;SDS011;2783;48.730;8.006;2023-08-01T11:08:01;1.50;;;0.70;;
5521;SDS011;2783;48.730;8.006;2023-08-01T11:10:31;0.60;;;0.50;;
5521;SDS011;2783;48.730;8.006;2023-08-01T11:12:58;2.28;;;0.88;;
5521;SDS011;2783;48.730;8.006;2023-08-01T11:15:24;3.08;;;1.45;;
5521;SDS011;2783;48.730;8.006;2023-08-01T11:17:50;2.60;;;0.98;;
5521;SDS011;2783;48.730;8.006;2023-08-01T11:20:18;1.25;;;0.68;;
5521;SDS011;2783;48.730;8.006;2023-08-01T11:22:50;2.85;;;1.00;;
5521;SDS011;2783;48.730;8.006;2023-08-01T11:25:35;1.60;;;0.73;;
5521;SDS011;2783;48.730;8.006;2023-08-01T11:28:06;1.52;;;0.60;;
5521;SDS011;2783;48.730;8.006;2023-08-01T11:30:34;3.50;;;0.85;;
5521;SDS011;2783;48.730;8.006;2023-08-01T11:33:00;2.25;;;0.82;;
5521;SDS011;2783;48.730;8.006;2023-08-01T11:35:28;2.45;;;0.90;;
5521;SDS011;2783;48.730;8.006;2023-08-01T11:37:53;7.65;;;0.88;;
5521;SDS011;2783;48.730;8.006;2023-08-01T11:40:19;3.28;;;0.90;;
5521;SDS011;2783;48.730;8.006;2023-08-01T11:42:49;1.45;;;0.60;;
5521;SDS011;2783;48.730;8.006;2023-08-01T11:45:17;3.40;;;0.70;;
5521;SDS011;2783;48.730;8.006;2023-08-01T11:47:46;1.98;;;0.70;;
5521;SDS011;2783;48.730;8.006;2023-08-01T11:50:12;2.85;;;0.77;;
5521;SDS011;2783;48.730;8.006;2023-08-01T11:52:39;1.95;;;0.80;;
5521;SDS011;2783;48.730;8.006;2023-08-01T11:55:04;2.33;;;0.90;;
5521;SDS011;2783;48.730;8.006;2023-08-01T11:57:30;1.15;;;1.00;;
5521;SDS011;2783;48.730;8.006;2023-08-01T11:59:56;1.70;;;0.60;;
5521;SDS011;2783;48.730;8.006;2023-08-01T12:02:22;1.25;;;0.70;;
5521;SDS011;2783;48.730;8.006;2023-08-01T12:04:48;2.80;;;0.60;;
5521;SDS011;2783;48.730;8.006;2023-08-01T12:07:14;1.77;;;0.70;;
5521;SDS011;2783;48.730;8.006;2023-08-01T12:09:41;1.10;;;0.60;;
5521;SDS011;2783;48.730;8.006;2023-08-01T12:12:06;3.92;;;0.88;;
5521;SDS011;2783;48.730;8.006;2023-08-01T12:14:33;1.45;;;0.70;;
5521;SDS011;2783;48.730;8.006;2023-08-01T12:17:04;3.22;;;0.63;;
5521;SDS011;2783;48.730;8.006;2023-08-01T12:19:29;4.00;;;1.38;;
5521;SDS011;2783;48.730;8.006;2023-08-01T12:21:55;2.33;;;0.60;;
5521;SDS011;2783;48.730;8.006;2023-08-01T12:24:20;2.92;;;0.88;;
5521;SDS011;2783;48.730;8.006;2023-08-01T12:26:45;1.05;;;0.63;;
5521;SDS011;2783;48.730;8.006;2023-08-01T12:29:11;1.77;;;0.70;;
5521;SDS011;2783;48.730;8.006;2023-08-01T12:31:37;2.53;;;0.60;;
5521;SDS011;2783;48.730;8.006;2023-08-01T12:34:02;2.08;;;0.98;;
5521;SDS011;2783;48.730;8.006;2023-08-01T12:36:27;3.25;;;0.70;;
5521;SDS011;2783;48.730;8.006;2023-08-01T12:38:53;2.00;;;0.88;;
5521;SDS011;2783;48.730;8.006;2023-08-01T12:41:18;2.22;;;0.85;;
5521;SDS011;2783;48.730;8.006;2023-08-01T12:43:44;3.00;;;0.80;;
5521;SDS011;2783;48.730;8.006;2023-08-01T12:46:09;1.90;;;0.88;;
5521;SDS011;2783;48.730;8.006;2023-08-01T12:48:35;2.15;;;0.82;;
5521;SDS011;2783;48.730;8.006;2023-08-01T12:51:00;2.22;;;0.73;;
5521;SDS011;2783;48.730;8.006;2023-08-01T12:53:27;3.17;;;1.00;;
5521;SDS011;2783;48.730;8.006;2023-08-01T12:55:52;1.27;;;0.52;;
5521;SDS011;2783;48.730;8.006;2023-08-01T12:58:18;4.28;;;0.82;;
5521;SDS011;2783;48.730;8.006;2023-08-01T13:00:44;1.50;;;0.85;;
5521;SDS011;2783;48.730;8.006;2023-08-01T13:03:09;2.97;;;0.77;;
5521;SDS011;2783;48.730;8.006;2023-08-01T13:05:36;1.50;;;0.88;;
5521;SDS011;2783;48.730;8.006;2023-08-01T13:08:03;2.03;;;0.73;;
5521;SDS011;2783;48.730;8.006;2023-08-01T13:10:35;2.75;;;1.23;;
5521;SDS011;2783;48.730;8.006;2023-08-01T13:13:03;2.58;;;1.10;;
5521;SDS011;2783;48.730;8.006;2023-08-01T13:15:28;2.03;;;0.82;;
5521;SDS011;2783;48.730;8.006;2023-08-01T13:17:54;2.25;;;0.90;;
5521;SDS011;2783;48.730;8.006;2023-08-01T13:20:20;1.85;;;0.70;;
5521;SDS011;2783;48.730;8.006;2023-08-01T13:22:46;2.38;;;1.17;;
5521;SDS011;2783;48.730;8.006;2023-08-01T13:25:13;2.30;;;1.02;;
5521;SDS011;2783;48.730;8.006;2023-08-01T13:27:39;1.30;;;0.80;;
5521;SDS011;2783;48.730;8.006;2023-08-01T13:30:05;2.85;;;0.90;;
5521;SDS011;2783;48.730;8.006;2023-08-01T13:32:31;2.97;;;1.10;;
5521;SDS011;2783;48.730;8.006;2023-08-01T13:34:56;2.80;;;0.85;;
5521;SDS011;2783;48.730;8.006;2023-08-01T13:37:22;1.50;;;0.70;;
5521;SDS011;2783;48.730;8.006;2023-08-01T13:39:47;1.73;;;0.80;;
5521;SDS011;2783;48.730;8.006;2023-08-01T13:42:12;1.83;;;1.17;;
5521;SDS011;2783;48.730;8.006;2023-08-01T13:44:38;1.92;;;0.80;;
5521;SDS011;2783;48.730;8.006;2023-08-01T13:47:03;2.35;;;0.77;;
5521;SDS011;2783;48.730;8.006;2023-08-01T13:49:30;4.30;;;1.05;;
5521;SDS011;2783;48.730;8.006;2023-08-01T13:51:55;1.90;;;0.90;;
5521;SDS011;2783;48.730;8.006;2023-08-01T13:54:21;3.15;;;0.88;;
5521;SDS011;2783;48.730;8.006;2023-08-01T13:56:46;2.28;;;0.80;;
5521;SDS011;2783;48.730;8.006;2023-08-01T13:59:11;2.47;;;0.93;;
5521;SDS011;2783;48.730;8.006;2023-08-01T14:01:37;1.55;;;0.70;;
5521;SDS011;2783;48.730;8.006;2023-08-01T14:04:03;2.63;;;0.80;;
5521;SDS011;2783;48.730;8.006;2023-08-01T14:06:29;4.18;;;1.00;;
5521;SDS011;2783;48.730;8.006;2023-08-01T14:08:54;3.30;;;0.75;;
5521;SDS011;2783;48.730;8.006;2023-08-01T14:11:20;2.65;;;0.95;;
5521;SDS011;2783;48.730;8.006;2023-08-01T14:13:45;3.47;;;0.98;;
5521;SDS011;2783;48.730;8.006;2023-08-01T14:16:11;2.97;;;0.95;;
5521;SDS011;2783;48.730;8.006;2023-08-01T14:18:36;1.90;;;0.90;;
5521;SDS011;2783;48.730;8.006;2023-08-01T14:21:01;1.33;;;0.70;;
5521;SDS011;2783;48.730;8.006;2023-08-01T14:23:27;1.05;;;0.63;;
5521;SDS011;2783;48.730;8.006;2023-08-01T14:25:52;6.63;;;1.00;;
5521;SDS011;2783;48.730;8.006;2023-08-01T14:28:18;0.90;;;0.70;;
5521;SDS011;2783;48.730;8.006;2023-08-01T14:30:43;4.30;;;0.80;;
5521;SDS011;2783;48.730;8.006;2023-08-01T14:33:09;1.77;;;0.80;;
5521;SDS011;2783;48.730;8.006;2023-08-01T14:35:35;4.82;;;0.90;;
5521;SDS011;2783;48.730;8.006;2023-08-01T14:38:01;3.05;;;1.23;;
5521;SDS011;2783;48.730;8.006;2023-08-01T14:40:27;2.25;;;0.80;;
5521;SDS011;2783;48.730;8.006;2023-08-01T14:42:53;1.42;;;0.80;;
5521;SDS011;2783;48.730;8.006;2023-08-01T14:45:19;1.10;;;0.70;;
5521;SDS011;2783;48.730;8.006;2023-08-01T14:47:44;1.83;;;0.70;;
5521;SDS011;2783;48.730;8.006;2023-08-01T14:50:11;2.40;;;0.70;;
5521;SDS011;2783;48.730;8.006;2023-08-01T14:52:37;1.35;;;0.73;;
5521;SDS011;2783;48.730;8.006;2023-08-01T14:55:03;1.70;;;1.13;;
5521;SDS011;2783;48.730;8.006;2023-08-01T14:57:30;3.53;;;0.80;;
5521;SDS011;2783;48.730;8.006;2023-08-01T14:59:55;2.15;;;0.77;;
5521;SDS011;2783;48.730;8.006;2023-08-01T15:02:21;2.90;;;0.90;;
5521;SDS011;2783;48.730;8.006;2023-08-01T15:04:50;2.92;;;0.70;;
5521;SDS011;2783;48.730;8.006;2023-08-01T15:07:16;3.40;;;0.80;;
5521;SDS011;2783;48.730;8.006;2023-08-01T15:09:42;3.50;;;0.93;;
5521;SDS011;2783;48.730;8.006;2023-08-01T15:12:08;3.15;;;0.98;;
5521;SDS011;2783;48.730;8.006;2023-08-01T15:14:34;3.38;;;0.75;;
5521;SDS011;2783;48.730;8.006;2023-08-01T15:16:59;1.70;;;1.00;;
5521;SDS011;2783;48.730;8.006;2023-08-01T15:19:25;0.82;;;0.40;;
5521;SDS011;2783;48.730;8.006;2023-08-01T15:21:50;1.58;;;0.90;;
5521;SDS011;2783;48.730;8.006;2023-08-01T15:24:15;3.45;;;0.98;;
5521;SDS011;2783;48.730;8.006;2023-08-01T15:26:41;4.10;;;1.13;;
5521;SDS011;2783;48.730;8.006;2023-08-01T15:29:06;2.28;;;0.80;;
5521;SDS011;2783;48.730;8.006;2023-08-01T15:31:31;1.63;;;0.85;;